Gas Wisdom — H9CC — position and weather

sailwx.info

Track history (hours):
 
Tides and Currents Weather Stations Pressure Air Temp Water Temp Dewpoint Dewpoint Depression Visibility Wind Speed Wind Dir Waves Ship Positions

Gas Wisdom

Last reported at 2017-Oct-30 22:32 UTC. Time now 2017-Nov-21 17:15 UTC.
Position N 01°19' E 103°20'.
Warning: this ship's position is 21 days out of date.

Length 225 m; draft 8.2 m.

Type: Tanker. MMSI: 373435000.

Date/timePositionNaut miles runAvg speedWind from/ knotsBaromVisibWave heightAir tempDewpointWater temp
2017-Oct-30 22:32N 01°19' E 103°20'313.7
2017-Oct-30 22:18N 01°17' E 103°22'513.9
2017-Oct-30 21:59N 01°14' E 103°26'714.7
2017-Oct-30 21:30N 01°12' E 103°32'713.8
2017-Oct-30 21:01N 01°11' E 103°39'713.1
2017-Oct-30 20:30N 01°09' E 103°45'713.6
2017-Oct-30 20:01N 01°12' E 103°51'612.8
2017-Oct-30 19:30N 01°14' E 103°57'714.0
2017-Oct-30 19:00N 01°16' E 104°04'  
Track history (hours):
 
Tides and Currents Weather Stations Pressure Air Temp Water Temp Dewpoint Dewpoint Depression Visibility Wind Speed Wind Dir Waves Ship Positions

Gas Wisdom

Last reported at 2017-Oct-30 22:32 UTC. Time now 2017-Nov-21 17:15 UTC.
Position N 01°19' E 103°20'.
Warning: this ship's position is 21 days out of date.

Length 225 m; draft 8.2 m.

Type: Tanker. MMSI: 373435000.

Date/timePositionNaut miles runAvg speedWind from/ knotsBaromVisibWave heightAir tempDewpointWater temp
2017-Oct-30 22:32N 01°19' E 103°20'313.7
2017-Oct-30 22:18N 01°17' E 103°22'513.9
2017-Oct-30 21:59N 01°14' E 103°26'714.7
2017-Oct-30 21:30N 01°12' E 103°32'713.8
2017-Oct-30 21:01N 01°11' E 103°39'713.1
2017-Oct-30 20:30N 01°09' E 103°45'713.6
2017-Oct-30 20:01N 01°12' E 103°51'612.8
2017-Oct-30 19:30N 01°14' E 103°57'714.0
2017-Oct-30 19:00N 01°16' E 104°04'  

Dump ship's entire track history